Flight Track Log - Related Links

Times and Time Zones

All times are in EDT time to prevent confusion due to time zone crossing. See the SWA318 flight status page for this flight to view local times or setup timezone preferences in your user account.


Time Position Orientation Groundspeed Altitude Reporting Facility
EDT Latitude Longitude Course Direction KTS MPH feet Rate Location/Type
Mon 10:57:14 AM 36.0719 -115.2386 83° East 245 282 5,500  Level Los Angeles Center
Mon 10:58:15 AM 36.0028 -115.2881 210° Southwest 286 329 7,000 2,047 Climbing Los Angeles Center
Mon 10:59:23 AM 35.9203 -115.2803 176° South 284 327 9,900 2,459 Climbing Los Angeles Center
Mon 11:00:17 AM 35.8567 -115.2217 143° Southeast 356 410 12,000 2,758 Climbing Los Angeles Center
Mon 11:01:27 AM 35.8258 -115.0878 106° East 374 430 15,600 3,182 Climbing Los Angeles Center
Mon 11:02:00 AM 35.8357 -114.7517 83° East  Level FlightAware Approximate
Mon 11:02:29 AM 35.8311 -114.9453 87° East 420 483 19,000  Level Los Angeles Center
Mon 11:03:31 AM 35.8428 -114.7942 85° East 439 505 21,800 2,806 Climbing Los Angeles Center
Mon 11:04:33 AM 35.8531 -114.6086 86° East 455 524 24,800 3,000 Climbing Los Angeles Center
Mon 11:05:35 AM 35.7939 -114.4717 118° Southeast 447 514 28,000 2,032 Climbing Los Angeles Center
Mon 11:06:37 AM 35.7247 -114.3447 124° Southeast 446 513 29,000 484 Climbing Los Angeles Center
Mon 11:07:39 AM 35.6617 -114.2225 122° Southeast 456 525 29,000  Level Los Angeles Center
Mon 11:08:41 AM 35.5886 -114.0869 124° Southeast 472 543 29,000  Level Los Angeles Center
Mon 11:09:43 AM 35.4992 -113.9244 124° Southeast 480 552 29,000  Level Los Angeles Center
Mon 11:10:45 AM 35.4272 -113.7917 124° Southeast 475 547 29,000  Level Los Angeles Center
Mon 11:11:47 AM 35.3553 -113.6592 124° Southeast 471 542 29,000  Level Los Angeles Center
Mon 11:12:50 AM 35.2828 -113.5275 124° Southeast 470 541 29,000  Level Los Angeles Center
Mon 11:13:52 AM 35.1956 -113.3692 124° Southeast 474 545 29,000  Level Los Angeles Center
Mon 11:14:54 AM 35.1236 -113.2386 124° Southeast 470 541 29,000  Level Los Angeles Center
Mon 11:15:56 AM 35.0544 -113.1094 123° Southeast 463 533 29,000 -474 Level Los Angeles Center
Mon 11:16:48 AM 34.9981 -113.0106 125° Southeast 456 525 28,100 -1,105 Descending Albuquerque Center
Mon 11:17:50 AM 34.9175 -112.8642 124° Southeast 443 510 26,900 -1,065 Descending Albuquerque Center
Mon 11:18:52 AM 34.8514 -112.7456 124° Southeast 432 497 25,900 -968 Descending Albuquerque Center
Mon 11:19:54 AM 34.7853 -112.6283 124° Southeast 425 489 24,900 -919 Descending Albuquerque Center
Mon 11:20:56 AM 34.7208 -112.5131 124° Southeast 419 482 24,000 -919 Descending Albuquerque Center
Mon 11:21:58 AM 34.6447 -112.4228 136° Southeast 397 457 23,000 -1,548 Descending Albuquerque Center
Mon 11:23:00 AM 34.5478 -112.3311 142° Southeast 379 436 20,800 -1,839 Descending Albuquerque Center
Mon 11:24:02 AM 34.4672 -112.2514 141° Southeast 375 432 19,200 -1,645 Descending Albuquerque Center
Mon 11:25:04 AM 34.3781 -112.2119 160° South 355 409 17,400 -1,597 Descending Albuquerque Center
Mon 11:26:06 AM 34.2894 -112.1889 168° South 334 384 15,900 -1,440 Descending Albuquerque Center
Mon 11:27:09 AM 34.2022 -112.1661 168° South 326 375 14,400 -1,392 Descending Albuquerque Center
Mon 11:28:11 AM 34.1000 -112.1397 168° South 316 364 13,000 -1,161 Descending Albuquerque Center
Mon 11:29:13 AM 34.0172 -112.1178 168° South 308 354 12,000 -1,161 Descending Albuquerque Center
Mon 11:30:15 AM 33.9361 -112.0981 169° South 301 346 10,600 -968 Descending Albuquerque Center
Mon 11:31:17 AM 33.8583 -112.0778 168° South 291 335 10,000 -290 Descending Albuquerque Center
Mon 11:32:19 AM 33.7664 -112.0547 168° South 285 328 10,000  Level Albuquerque Center
Mon 11:33:21 AM 33.6886 -112.0408 172° South 284 327 10,000  Level Albuquerque Center
Mon 11:34:23 AM 33.6072 -112.0267 172° South 283 326 10,000 -97 Level Albuquerque Center
Mon 11:35:25 AM 33.5297 -112.0114 171° South 285 328 9,800 -339 Descending Albuquerque Center
Mon 11:36:27 AM 33.4617 -112.0039 175° South 247 284 9,300 -1,016 Descending Albuquerque Center
Mon 11:37:29 AM 33.4022 -111.9969 174° South 232 267 7,700 -1,113 Descending Albuquerque Center
Mon 11:38:31 AM 33.3378 -111.9728 163° South 231 266 7,000 -435 Descending Albuquerque Center
Mon 11:39:33 AM 33.3406 -111.8981 87° East 227 261 6,800 -484 Descending Albuquerque Center
Mon 11:40:35 AM 33.3428 -111.8258 88° East 220 253 6,000 -387 Descending Albuquerque Center
Mon 11:41:37 AM 33.3614 -111.7628 71° East 230 265 6,000 -484 Level Albuquerque Center
Mon 11:42:39 AM 33.4136 -111.7789 346° North 202 232 5,000 -1,161 Descending Albuquerque Center
Mon 11:43:41 AM 33.4297 -111.8433 287° West 167 192 3,600 -1,065 Descending Albuquerque Center
Mon 11:44:43 AM 33.4286 -111.8944 269° West 156 180 2,800 -774 Descending Albuquerque Center
Mon 11:45:45 AM 33.4292 -111.9444 271° West 145 167 2,000 -774 Descending Albuquerque Center
Mon 11:46:47 AM 33.4286 -111.9942 269° West 139 160 1,200 -774 Descending Albuquerque Center

Login

Don't have an account? Register now (free) for customized features, flight alerts, and more!